sensor_id;sensor_type;location;lat;lon;timestamp;temperature;humidity
31799;DHT22;18374;51.136;3.502;2023-04-03T00:01:20;1.70;99.90
31799;DHT22;18374;51.136;3.502;2023-04-03T00:03:48;1.70;99.90
31799;DHT22;18374;51.136;3.502;2023-04-03T00:06:17;1.70;99.90
31799;DHT22;18374;51.136;3.502;2023-04-03T00:08:45;1.60;99.90
31799;DHT22;18374;51.136;3.502;2023-04-03T00:11:13;1.60;99.90
31799;DHT22;18374;51.136;3.502;2023-04-03T00:13:41;1.60;99.90
31799;DHT22;18374;51.136;3.502;2023-04-03T00:16:10;1.60;99.90
31799;DHT22;18374;51.136;3.502;2023-04-03T00:18:39;1.50;99.90
31799;DHT22;18374;51.136;3.502;2023-04-03T00:21:09;1.60;99.90
31799;DHT22;18374;51.136;3.502;2023-04-03T00:23:37;1.60;99.90
31799;DHT22;18374;51.136;3.502;2023-04-03T00:26:05;1.60;99.90
31799;DHT22;18374;51.136;3.502;2023-04-03T00:28:33;1.60;99.90
31799;DHT22;18374;51.136;3.502;2023-04-03T00:31:01;1.60;99.90
31799;DHT22;18374;51.136;3.502;2023-04-03T00:33:28;1.50;99.90
31799;DHT22;18374;51.136;3.502;2023-04-03T00:35:56;1.60;99.90
31799;DHT22;18374;51.136;3.502;2023-04-03T00:38:24;1.60;99.90
31799;DHT22;18374;51.136;3.502;2023-04-03T00:40:52;1.50;99.90
31799;DHT22;18374;51.136;3.502;2023-04-03T00:43:24;1.50;99.90
31799;DHT22;18374;51.136;3.502;2023-04-03T00:45:55;1.50;99.90
31799;DHT22;18374;51.136;3.502;2023-04-03T00:48:42;1.50;99.90
31799;DHT22;18374;51.136;3.502;2023-04-03T00:51:26;1.40;99.90
31799;DHT22;18374;51.136;3.502;2023-04-03T00:53:58;1.40;99.90
31799;DHT22;18374;51.136;3.502;2023-04-03T00:56:29;1.40;99.90
31799;DHT22;18374;51.136;3.502;2023-04-03T00:59:02;1.40;99.90
31799;DHT22;18374;51.136;3.502;2023-04-03T01:01:33;1.40;99.90
31799;DHT22;18374;51.136;3.502;2023-04-03T01:04:02;1.40;99.90
31799;DHT22;18374;51.136;3.502;2023-04-03T01:06:35;1.30;99.90
31799;DHT22;18374;51.136;3.502;2023-04-03T01:09:07;1.30;99.90
31799;DHT22;18374;51.136;3.502;2023-04-03T01:11:35;1.20;99.90
31799;DHT22;18374;51.136;3.502;2023-04-03T01:14:02;1.20;99.90
31799;DHT22;18374;51.136;3.502;2023-04-03T01:16:30;1.20;99.90
31799;DHT22;18374;51.136;3.502;2023-04-03T01:19:00;1.20;99.90
31799;DHT22;18374;51.136;3.502;2023-04-03T01:24:36;1.30;99.90
31799;DHT22;18374;51.136;3.502;2023-04-03T01:27:10;1.30;99.90
31799;DHT22;18374;51.136;3.502;2023-04-03T01:29:40;1.40;99.90
31799;DHT22;18374;51.136;3.502;2023-04-03T01:32:08;1.40;99.90
31799;DHT22;18374;51.136;3.502;2023-04-03T01:34:37;1.40;99.90
31799;DHT22;18374;51.136;3.502;2023-04-03T01:37:05;1.30;99.90
31799;DHT22;18374;51.136;3.502;2023-04-03T01:39:32;1.30;99.90
31799;DHT22;18374;51.136;3.502;2023-04-03T01:42:00;1.30;99.90
31799;DHT22;18374;51.136;3.502;2023-04-03T01:44:33;1.30;99.90
31799;DHT22;18374;51.136;3.502;2023-04-03T01:47:00;1.30;99.90
31799;DHT22;18374;51.136;3.502;2023-04-03T01:49:29;1.30;99.90
31799;DHT22;18374;51.136;3.502;2023-04-03T01:51:57;1.30;99.90
31799;DHT22;18374;51.136;3.502;2023-04-03T01:54:25;1.20;99.90
31799;DHT22;18374;51.136;3.502;2023-04-03T01:56:53;1.20;99.90
31799;DHT22;18374;51.136;3.502;2023-04-03T01:59:21;1.20;99.90
31799;DHT22;18374;51.136;3.502;2023-04-03T02:01:50;1.10;99.90
31799;DHT22;18374;51.136;3.502;2023-04-03T02:04:18;1.10;99.90
31799;DHT22;18374;51.136;3.502;2023-04-03T02:06:46;1.10;99.90
31799;DHT22;18374;51.136;3.502;2023-04-03T02:09:14;1.10;99.90
31799;DHT22;18374;51.136;3.502;2023-04-03T02:11:42;1.10;99.90
31799;DHT22;18374;51.136;3.502;2023-04-03T02:14:10;1.10;99.90
31799;DHT22;18374;51.136;3.502;2023-04-03T02:16:38;1.10;99.90
31799;DHT22;18374;51.136;3.502;2023-04-03T02:19:06;1.00;99.90
31799;DHT22;18374;51.136;3.502;2023-04-03T02:21:34;1.10;99.90
31799;DHT22;18374;51.136;3.502;2023-04-03T02:24:01;1.00;99.90
31799;DHT22;18374;51.136;3.502;2023-04-03T02:26:29;1.00;99.90
31799;DHT22;18374;51.136;3.502;2023-04-03T02:28:57;1.00;99.90
31799;DHT22;18374;51.136;3.502;2023-04-03T02:31:24;0.90;99.90
31799;DHT22;18374;51.136;3.502;2023-04-03T02:33:53;0.90;99.90
31799;DHT22;18374;51.136;3.502;2023-04-03T02:36:21;0.90;99.90
31799;DHT22;18374;51.136;3.502;2023-04-03T02:38:53;0.80;99.90
31799;DHT22;18374;51.136;3.502;2023-04-03T02:41:21;0.80;99.90
31799;DHT22;18374;51.136;3.502;2023-04-03T02:43:51;0.80;99.90
31799;DHT22;18374;51.136;3.502;2023-04-03T02:46:19;0.70;99.90
31799;DHT22;18374;51.136;3.502;2023-04-03T02:48:46;0.70;99.90
31799;DHT22;18374;51.136;3.502;2023-04-03T02:51:15;0.80;99.90
31799;DHT22;18374;51.136;3.502;2023-04-03T02:53:42;0.80;99.90
31799;DHT22;18374;51.136;3.502;2023-04-03T02:56:16;0.90;99.90
31799;DHT22;18374;51.136;3.502;2023-04-03T02:58:45;0.90;99.90
31799;DHT22;18374;51.136;3.502;2023-04-03T03:01:14;0.90;99.90
31799;DHT22;18374;51.136;3.502;2023-04-03T03:03:41;0.90;99.90
31799;DHT22;18374;51.136;3.502;2023-04-03T03:06:11;0.90;99.90
31799;DHT22;18374;51.136;3.502;2023-04-03T03:08:41;0.90;99.90
31799;DHT22;18374;51.136;3.502;2023-04-03T03:11:09;0.90;99.90
31799;DHT22;18374;51.136;3.502;2023-04-03T03:13:38;0.90;99.90
31799;DHT22;18374;51.136;3.502;2023-04-03T03:16:06;0.90;99.90
31799;DHT22;18374;51.136;3.502;2023-04-03T03:18:34;0.80;99.90
31799;DHT22;18374;51.136;3.502;2023-04-03T03:21:03;0.80;99.90
31799;DHT22;18374;51.136;3.502;2023-04-03T03:23:32;0.80;99.90
31799;DHT22;18374;51.136;3.502;2023-04-03T03:26:03;0.80;99.90
31799;DHT22;18374;51.136;3.502;2023-04-03T03:28:34;0.70;99.90
31799;DHT22;18374;51.136;3.502;2023-04-03T03:31:05;0.70;99.90
31799;DHT22;18374;51.136;3.502;2023-04-03T03:33:36;0.70;99.90
31799;DHT22;18374;51.136;3.502;2023-04-03T03:36:04;0.70;99.90
31799;DHT22;18374;51.136;3.502;2023-04-03T03:38:32;0.60;99.90
31799;DHT22;18374;51.136;3.502;2023-04-03T03:41:01;0.60;99.90
31799;DHT22;18374;51.136;3.502;2023-04-03T03:43:31;0.60;99.90
31799;DHT22;18374;51.136;3.502;2023-04-03T03:45:58;0.60;99.90
31799;DHT22;18374;51.136;3.502;2023-04-03T03:48:27;0.60;99.90
31799;DHT22;18374;51.136;3.502;2023-04-03T03:50:56;0.70;99.90
31799;DHT22;18374;51.136;3.502;2023-04-03T03:53:28;0.60;99.90
31799;DHT22;18374;51.136;3.502;2023-04-03T03:56:00;0.60;99.90
31799;DHT22;18374;51.136;3.502;2023-04-03T03:58:30;0.60;99.90
31799;DHT22;18374;51.136;3.502;2023-04-03T04:01:05;0.70;99.90
31799;DHT22;18374;51.136;3.502;2023-04-03T04:03:40;0.60;99.90
31799;DHT22;18374;51.136;3.502;2023-04-03T04:06:10;0.70;99.90
31799;DHT22;18374;51.136;3.502;2023-04-03T04:08:38;0.60;99.90
31799;DHT22;18374;51.136;3.502;2023-04-03T04:11:08;0.60;99.90
31799;DHT22;18374;51.136;3.502;2023-04-03T04:13:38;0.60;99.90
31799;DHT22;18374;51.136;3.502;2023-04-03T04:16:07;0.60;99.90
31799;DHT22;18374;51.136;3.502;2023-04-03T04:18:35;0.60;99.90
31799;DHT22;18374;51.136;3.502;2023-04-03T04:21:03;0.50;99.90
31799;DHT22;18374;51.136;3.502;2023-04-03T04:23:31;0.50;99.90
31799;DHT22;18374;51.136;3.502;2023-04-03T04:26:00;0.50;99.90
31799;DHT22;18374;51.136;3.502;2023-04-03T04:28:32;0.50;99.90
31799;DHT22;18374;51.136;3.502;2023-04-03T04:31:02;0.50;99.90
31799;DHT22;18374;51.136;3.502;2023-04-03T04:33:31;0.40;99.90
31799;DHT22;18374;51.136;3.502;2023-04-03T04:36:02;0.40;99.90
31799;DHT22;18374;51.136;3.502;2023-04-03T04:38:30;0.40;99.90
31799;DHT22;18374;51.136;3.502;2023-04-03T04:40:58;0.30;99.90
31799;DHT22;18374;51.136;3.502;2023-04-03T04:43:26;0.30;99.90
31799;DHT22;18374;51.136;3.502;2023-04-03T04:46:08;0.30;99.90
31799;DHT22;18374;51.136;3.502;2023-04-03T04:48:44;0.30;99.90
31799;DHT22;18374;51.136;3.502;2023-04-03T04:51:13;0.30;99.90
31799;DHT22;18374;51.136;3.502;2023-04-03T04:53:42;0.30;99.90
31799;DHT22;18374;51.136;3.502;2023-04-03T04:56:13;0.20;99.90
31799;DHT22;18374;51.136;3.502;2023-04-03T04:58:42;0.20;99.90
31799;DHT22;18374;51.136;3.502;2023-04-03T05:01:10;0.20;99.90
31799;DHT22;18374;51.136;3.502;2023-04-03T05:03:50;0.20;99.90
31799;DHT22;18374;51.136;3.502;2023-04-03T05:06:19;0.20;99.90
31799;DHT22;18374;51.136;3.502;2023-04-03T05:08:47;0.20;99.90
31799;DHT22;18374;51.136;3.502;2023-04-03T05:11:15;0.10;99.90
31799;DHT22;18374;51.136;3.502;2023-04-03T05:13:45;0.20;99.90
31799;DHT22;18374;51.136;3.502;2023-04-03T05:16:13;0.20;99.90
31799;DHT22;18374;51.136;3.502;2023-04-03T05:18:41;0.20;99.90
31799;DHT22;18374;51.136;3.502;2023-04-03T05:21:16;0.20;99.90
31799;DHT22;18374;51.136;3.502;2023-04-03T05:23:47;0.20;99.90
31799;DHT22;18374;51.136;3.502;2023-04-03T05:26:15;0.20;99.90
31799;DHT22;18374;51.136;3.502;2023-04-03T05:28:46;0.20;99.90
31799;DHT22;18374;51.136;3.502;2023-04-03T05:31:15;0.10;99.90
31799;DHT22;18374;51.136;3.502;2023-04-03T05:33:43;0.10;99.90
31799;DHT22;18374;51.136;3.502;2023-04-03T05:36:16;0.20;99.90
31799;DHT22;18374;51.136;3.502;2023-04-03T05:38:49;0.20;99.90
31799;DHT22;18374;51.136;3.502;2023-04-03T05:41:19;0.20;99.90
31799;DHT22;18374;51.136;3.502;2023-04-03T05:43:49;0.20;99.90
31799;DHT22;18374;51.136;3.502;2023-04-03T05:46:19;0.20;99.90
31799;DHT22;18374;51.136;3.502;2023-04-03T05:48:52;0.20;99.90
31799;DHT22;18374;51.136;3.502;2023-04-03T05:51:25;0.30;99.90
31799;DHT22;18374;51.136;3.502;2023-04-03T05:54:13;0.30;99.90
31799;DHT22;18374;51.136;3.502;2023-04-03T05:56:45;0.30;99.90
31799;DHT22;18374;51.136;3.502;2023-04-03T05:59:13;0.30;99.90
31799;DHT22;18374;51.136;3.502;2023-04-03T06:01:41;0.40;99.90
31799;DHT22;18374;51.136;3.502;2023-04-03T06:04:10;0.40;99.90
31799;DHT22;18374;51.136;3.502;2023-04-03T06:06:52;0.40;99.90
31799;DHT22;18374;51.136;3.502;2023-04-03T06:09:24;0.50;99.90
31799;DHT22;18374;51.136;3.502;2023-04-03T06:11:53;0.50;99.90
31799;DHT22;18374;51.136;3.502;2023-04-03T06:14:26;0.60;99.90
31799;DHT22;18374;51.136;3.502;2023-04-03T06:16:54;0.60;99.90
31799;DHT22;18374;51.136;3.502;2023-04-03T06:19:23;0.70;99.90
31799;DHT22;18374;51.136;3.502;2023-04-03T06:21:54;0.80;99.90
31799;DHT22;18374;51.136;3.502;2023-04-03T06:24:24;0.80;99.90
31799;DHT22;18374;51.136;3.502;2023-04-03T06:26:52;0.90;99.90
31799;DHT22;18374;51.136;3.502;2023-04-03T06:29:21;1.00;99.90
31799;DHT22;18374;51.136;3.502;2023-04-03T06:31:50;1.00;99.90
31799;DHT22;18374;51.136;3.502;2023-04-03T06:34:18;1.10;99.90
31799;DHT22;18374;51.136;3.502;2023-04-03T06:36:46;1.20;99.90
31799;DHT22;18374;51.136;3.502;2023-04-03T06:39:16;1.20;99.90
31799;DHT22;18374;51.136;3.502;2023-04-03T06:41:45;1.30;99.90
31799;DHT22;18374;51.136;3.502;2023-04-03T06:44:12;1.40;99.90
31799;DHT22;18374;51.136;3.502;2023-04-03T06:46:44;1.60;99.90
31799;DHT22;18374;51.136;3.502;2023-04-03T06:49:14;1.70;99.90
31799;DHT22;18374;51.136;3.502;2023-04-03T06:51:42;1.80;99.90
31799;DHT22;18374;51.136;3.502;2023-04-03T06:54:10;1.90;99.90
31799;DHT22;18374;51.136;3.502;2023-04-03T06:56:38;2.10;99.90
31799;DHT22;18374;51.136;3.502;2023-04-03T06:59:06;2.20;99.90
31799;DHT22;18374;51.136;3.502;2023-04-03T07:01:33;2.30;99.90
31799;DHT22;18374;51.136;3.502;2023-04-03T07:04:01;2.40;99.90
31799;DHT22;18374;51.136;3.502;2023-04-03T07:06:29;2.50;99.90
31799;DHT22;18374;51.136;3.502;2023-04-03T07:08:58;2.60;99.90
31799;DHT22;18374;51.136;3.502;2023-04-03T07:11:27;2.70;99.90
31799;DHT22;18374;51.136;3.502;2023-04-03T07:13:55;2.80;99.90
31799;DHT22;18374;51.136;3.502;2023-04-03T07:16:23;2.90;99.90
31799;DHT22;18374;51.136;3.502;2023-04-03T07:18:52;3.00;99.90
31799;DHT22;18374;51.136;3.502;2023-04-03T07:21:20;3.10;99.90
31799;DHT22;18374;51.136;3.502;2023-04-03T07:23:47;3.20;99.90
31799;DHT22;18374;51.136;3.502;2023-04-03T07:26:21;3.30;99.90
31799;DHT22;18374;51.136;3.502;2023-04-03T07:28:49;3.40;99.90
31799;DHT22;18374;51.136;3.502;2023-04-03T07:31:17;3.50;99.90
31799;DHT22;18374;51.136;3.502;2023-04-03T07:33:46;3.60;99.90
31799;DHT22;18374;51.136;3.502;2023-04-03T07:36:16;3.70;99.90
31799;DHT22;18374;51.136;3.502;2023-04-03T07:38:46;3.90;99.90
31799;DHT22;18374;51.136;3.502;2023-04-03T07:41:15;4.00;99.90
31799;DHT22;18374;51.136;3.502;2023-04-03T07:43:45;4.20;99.90
31799;DHT22;18374;51.136;3.502;2023-04-03T07:46:13;4.30;99.90
31799;DHT22;18374;51.136;3.502;2023-04-03T07:48:41;4.40;99.90
31799;DHT22;18374;51.136;3.502;2023-04-03T07:51:09;4.50;99.90
31799;DHT22;18374;51.136;3.502;2023-04-03T07:53:38;4.70;99.90
31799;DHT22;18374;51.136;3.502;2023-04-03T07:56:06;4.80;99.90
31799;DHT22;18374;51.136;3.502;2023-04-03T07:58:34;4.90;99.90
31799;DHT22;18374;51.136;3.502;2023-04-03T08:01:02;5.00;99.90
31799;DHT22;18374;51.136;3.502;2023-04-03T08:03:30;5.10;99.90
31799;DHT22;18374;51.136;3.502;2023-04-03T08:06:02;5.30;99.90
31799;DHT22;18374;51.136;3.502;2023-04-03T08:08:34;5.40;99.90
31799;DHT22;18374;51.136;3.502;2023-04-03T08:11:02;5.70;99.90
31799;DHT22;18374;51.136;3.502;2023-04-03T08:13:32;6.00;99.90
31799;DHT22;18374;51.136;3.502;2023-04-03T08:16:14;6.20;99.90
31799;DHT22;18374;51.136;3.502;2023-04-03T08:18:44;6.40;99.90
31799;DHT22;18374;51.136;3.502;2023-04-03T08:21:12;6.60;99.90
31799;DHT22;18374;51.136;3.502;2023-04-03T08:23:41;6.70;99.90
31799;DHT22;18374;51.136;3.502;2023-04-03T08:26:15;6.70;99.90
31799;DHT22;18374;51.136;3.502;2023-04-03T08:28:44;6.60;99.90
31799;DHT22;18374;51.136;3.502;2023-04-03T08:31:14;6.80;99.90
31799;DHT22;18374;51.136;3.502;2023-04-03T08:33:45;7.10;99.90
31799;DHT22;18374;51.136;3.502;2023-04-03T08:36:27;7.20;99.90
31799;DHT22;18374;51.136;3.502;2023-04-03T08:38:56;7.40;99.90
31799;DHT22;18374;51.136;3.502;2023-04-03T08:47:04;8.00;99.90
31799;DHT22;18374;51.136;3.502;2023-04-03T08:49:51;8.20;99.90
31799;DHT22;18374;51.136;3.502;2023-04-03T08:52:39;8.20;99.90
31799;DHT22;18374;51.136;3.502;2023-04-03T09:00:43;8.40;99.90
31799;DHT22;18374;51.136;3.502;2023-04-03T09:03:16;8.40;99.90
31799;DHT22;18374;51.136;3.502;2023-04-03T09:12:04;8.80;99.90
31799;DHT22;18374;51.136;3.502;2023-04-03T09:17:45;9.00;99.90
31799;DHT22;18374;51.136;3.502;2023-04-03T09:21:02;9.10;99.90
31799;DHT22;18374;51.136;3.502;2023-04-03T09:23:51;9.10;99.90
31799;DHT22;18374;51.136;3.502;2023-04-03T09:26:45;9.40;99.90
31799;DHT22;18374;51.136;3.502;2023-04-03T09:29:19;9.60;99.90
31799;DHT22;18374;51.136;3.502;2023-04-03T09:31:56;9.70;99.90
31799;DHT22;18374;51.136;3.502;2023-04-03T09:34:38;9.30;99.90
31799;DHT22;18374;51.136;3.502;2023-04-03T09:37:08;9.40;99.90
31799;DHT22;18374;51.136;3.502;2023-04-03T09:39:50;9.40;99.90
31799;DHT22;18374;51.136;3.502;2023-04-03T09:45:02;9.20;99.90
31799;DHT22;18374;51.136;3.502;2023-04-03T09:47:34;9.30;99.90
31799;DHT22;18374;51.136;3.502;2023-04-03T09:52:42;9.80;99.90
31799;DHT22;18374;51.136;3.502;2023-04-03T09:55:17;9.70;99.90
31799;DHT22;18374;51.136;3.502;2023-04-03T09:57:46;9.70;99.90
31799;DHT22;18374;51.136;3.502;2023-04-03T10:00:21;9.80;99.90
31799;DHT22;18374;51.136;3.502;2023-04-03T10:02:53;9.80;99.90
31799;DHT22;18374;51.136;3.502;2023-04-03T10:05:36;9.50;99.90
31799;DHT22;18374;51.136;3.502;2023-04-03T10:10:46;9.50;99.90
31799;DHT22;18374;51.136;3.502;2023-04-03T10:13:18;9.70;99.90
31799;DHT22;18374;51.136;3.502;2023-04-03T10:16:02;9.90;99.90
31799;DHT22;18374;51.136;3.502;2023-04-03T10:18:49;10.00;99.90
31799;DHT22;18374;51.136;3.502;2023-04-03T10:21:50;10.20;99.90
31799;DHT22;18374;51.136;3.502;2023-04-03T10:31:09;10.50;99.90
31799;DHT22;18374;51.136;3.502;2023-04-03T10:34:03;10.90;99.90
31799;DHT22;18374;51.136;3.502;2023-04-03T10:36:37;10.90;99.90
31799;DHT22;18374;51.136;3.502;2023-04-03T10:42:03;10.70;99.90
31799;DHT22;18374;51.136;3.502;2023-04-03T10:45:10;10.50;99.90
31799;DHT22;18374;51.136;3.502;2023-04-03T10:53:41;11.10;99.90
31799;DHT22;18374;51.136;3.502;2023-04-03T10:59:35;11.10;99.90
31799;DHT22;18374;51.136;3.502;2023-04-03T11:02:11;10.70;99.90
31799;DHT22;18374;51.136;3.502;2023-04-03T11:04:46;10.80;99.90
31799;DHT22;18374;51.136;3.502;2023-04-03T11:07:26;10.90;99.90
31799;DHT22;18374;51.136;3.502;2023-04-03T11:10:00;11.00;99.90
31799;DHT22;18374;51.136;3.502;2023-04-03T11:12:47;11.20;99.90
31799;DHT22;18374;51.136;3.502;2023-04-03T11:15:20;11.00;99.90
31799;DHT22;18374;51.136;3.502;2023-04-03T11:20:33;11.10;99.90
31799;DHT22;18374;51.136;3.502;2023-04-03T11:23:09;11.40;99.30
31799;DHT22;18374;51.136;3.502;2023-04-03T11:25:44;11.30;99.90
31799;DHT22;18374;51.136;3.502;2023-04-03T11:28:14;11.10;99.90
31799;DHT22;18374;51.136;3.502;2023-04-03T11:31:10;11.30;99.90
31799;DHT22;18374;51.136;3.502;2023-04-03T11:36:47;11.40;99.90
31799;DHT22;18374;51.136;3.502;2023-04-03T11:41:50;11.00;99.90
31799;DHT22;18374;51.136;3.502;2023-04-03T11:44:37;11.50;99.90
31799;DHT22;18374;51.136;3.502;2023-04-03T11:47:07;11.80;98.90
31799;DHT22;18374;51.136;3.502;2023-04-03T12:00:53;11.70;98.40
31799;DHT22;18374;51.136;3.502;2023-04-03T12:16:33;12.20;96.10
31799;DHT22;18374;51.136;3.502;2023-04-03T12:46:43;12.30;94.20
31799;DHT22;18374;51.136;3.502;2023-04-03T12:49:35;12.60;92.70
31799;DHT22;18374;51.136;3.502;2023-04-03T12:54:53;12.80;93.00
31799;DHT22;18374;51.136;3.502;2023-04-03T12:57:25;12.80;94.20
31799;DHT22;18374;51.136;3.502;2023-04-03T12:59:55;13.00;94.80
31799;DHT22;18374;51.136;3.502;2023-04-03T13:02:32;13.20;92.20
31799;DHT22;18374;51.136;3.502;2023-04-03T13:05:07;13.50;91.30
31799;DHT22;18374;51.136;3.502;2023-04-03T13:07:38;13.70;90.00
31799;DHT22;18374;51.136;3.502;2023-04-03T13:15:28;14.40;86.40
31799;DHT22;18374;51.136;3.502;2023-04-03T13:17:57;14.60;88.50
31799;DHT22;18374;51.136;3.502;2023-04-03T13:20:28;15.50;85.70
31799;DHT22;18374;51.136;3.502;2023-04-03T13:23:04;16.20;85.30
31799;DHT22;18374;51.136;3.502;2023-04-03T13:25:35;15.50;81.80
31799;DHT22;18374;51.136;3.502;2023-04-03T13:28:21;16.00;79.80
31799;DHT22;18374;51.136;3.502;2023-04-03T13:36:41;17.20;74.60
31799;DHT22;18374;51.136;3.502;2023-04-03T13:41:51;17.30;75.50
31799;DHT22;18374;51.136;3.502;2023-04-03T13:46:53;18.00;69.70
31799;DHT22;18374;51.136;3.502;2023-04-03T13:49:40;18.20;67.00
31799;DHT22;18374;51.136;3.502;2023-04-03T13:52:29;18.00;68.40
31799;DHT22;18374;51.136;3.502;2023-04-03T14:00:51;17.20;65.60
31799;DHT22;18374;51.136;3.502;2023-04-03T14:06:15;17.10;67.00
31799;DHT22;18374;51.136;3.502;2023-04-03T14:08:44;17.30;66.00
31799;DHT22;18374;51.136;3.502;2023-04-03T14:11:16;16.90;68.40
31799;DHT22;18374;51.136;3.502;2023-04-03T14:13:47;17.00;68.90
31799;DHT22;18374;51.136;3.502;2023-04-03T14:16:20;16.60;66.60
31799;DHT22;18374;51.136;3.502;2023-04-03T14:18:50;15.60;68.00
31799;DHT22;18374;51.136;3.502;2023-04-03T14:21:20;16.20;68.40
31799;DHT22;18374;51.136;3.502;2023-04-03T14:23:49;16.40;66.20
31799;DHT22;18374;51.136;3.502;2023-04-03T14:26:20;16.50;66.70
31799;DHT22;18374;51.136;3.502;2023-04-03T14:28:52;16.60;66.00
31799;DHT22;18374;51.136;3.502;2023-04-03T14:31:21;17.10;59.90
31799;DHT22;18374;51.136;3.502;2023-04-03T14:33:49;17.40;60.50
31799;DHT22;18374;51.136;3.502;2023-04-03T14:36:20;17.10;60.30
31799;DHT22;18374;51.136;3.502;2023-04-03T14:38:50;16.20;64.20
31799;DHT22;18374;51.136;3.502;2023-04-03T14:41:21;16.10;64.00
31799;DHT22;18374;51.136;3.502;2023-04-03T14:43:51;15.90;67.20
31799;DHT22;18374;51.136;3.502;2023-04-03T14:46:29;15.90;62.30
31799;DHT22;18374;51.136;3.502;2023-04-03T14:49:22;15.60;64.00
31799;DHT22;18374;51.136;3.502;2023-04-03T14:51:52;16.30;64.20
31799;DHT22;18374;51.136;3.502;2023-04-03T14:54:22;17.20;62.80
31799;DHT22;18374;51.136;3.502;2023-04-03T14:57:13;17.30;63.70
31799;DHT22;18374;51.136;3.502;2023-04-03T14:59:46;17.20;62.30
31799;DHT22;18374;51.136;3.502;2023-04-03T15:02:31;17.80;59.70
31799;DHT22;18374;51.136;3.502;2023-04-03T15:05:06;17.60;59.30
31799;DHT22;18374;51.136;3.502;2023-04-03T15:07:38;17.50;58.90
31799;DHT22;18374;51.136;3.502;2023-04-03T15:12:42;17.90;57.20
31799;DHT22;18374;51.136;3.502;2023-04-03T15:15:10;17.50;56.50
31799;DHT22;18374;51.136;3.502;2023-04-03T15:17:39;17.40;59.60
31799;DHT22;18374;51.136;3.502;2023-04-03T15:20:16;16.90;57.80
31799;DHT22;18374;51.136;3.502;2023-04-03T15:22:45;17.70;57.70
31799;DHT22;18374;51.136;3.502;2023-04-03T15:25:13;16.90;58.00
31799;DHT22;18374;51.136;3.502;2023-04-03T15:27:42;16.80;59.10
31799;DHT22;18374;51.136;3.502;2023-04-03T15:30:18;16.60;59.20
31799;DHT22;18374;51.136;3.502;2023-04-03T15:32:46;15.50;61.80
31799;DHT22;18374;51.136;3.502;2023-04-03T15:35:14;15.00;64.60
31799;DHT22;18374;51.136;3.502;2023-04-03T15:37:43;14.70;66.20
31799;DHT22;18374;51.136;3.502;2023-04-03T15:40:11;14.00;67.70
31799;DHT22;18374;51.136;3.502;2023-04-03T15:42:39;13.70;63.40
31799;DHT22;18374;51.136;3.502;2023-04-03T15:45:07;13.40;65.30
31799;DHT22;18374;51.136;3.502;2023-04-03T15:47:36;13.00;67.70
31799;DHT22;18374;51.136;3.502;2023-04-03T15:50:04;12.40;70.20
31799;DHT22;18374;51.136;3.502;2023-04-03T15:52:35;12.10;72.20
31799;DHT22;18374;51.136;3.502;2023-04-03T15:55:04;11.90;72.40
31799;DHT22;18374;51.136;3.502;2023-04-03T15:57:32;11.90;73.20
31799;DHT22;18374;51.136;3.502;2023-04-03T16:00:05;11.70;73.80
31799;DHT22;18374;51.136;3.502;2023-04-03T16:02:34;11.60;69.70
31799;DHT22;18374;51.136;3.502;2023-04-03T16:05:03;11.60;73.40
31799;DHT22;18374;51.136;3.502;2023-04-03T16:07:31;11.50;74.20
31799;DHT22;18374;51.136;3.502;2023-04-03T16:09:58;11.20;75.40
31799;DHT22;18374;51.136;3.502;2023-04-03T16:12:26;11.00;73.30
31799;DHT22;18374;51.136;3.502;2023-04-03T16:14:54;10.80;78.50
31799;DHT22;18374;51.136;3.502;2023-04-03T16:17:22;10.60;77.20
31799;DHT22;18374;51.136;3.502;2023-04-03T16:19:50;10.60;75.10
31799;DHT22;18374;51.136;3.502;2023-04-03T16:22:18;10.60;75.40
31799;DHT22;18374;51.136;3.502;2023-04-03T16:24:46;10.60;79.10
31799;DHT22;18374;51.136;3.502;2023-04-03T16:27:14;10.60;73.10
31799;DHT22;18374;51.136;3.502;2023-04-03T16:29:41;10.50;75.70
31799;DHT22;18374;51.136;3.502;2023-04-03T16:32:09;10.60;76.00
31799;DHT22;18374;51.136;3.502;2023-04-03T16:34:37;10.40;76.80
31799;DHT22;18374;51.136;3.502;2023-04-03T16:37:06;10.60;73.10
31799;DHT22;18374;51.136;3.502;2023-04-03T16:39:35;10.50;76.20
31799;DHT22;18374;51.136;3.502;2023-04-03T16:42:03;10.40;75.00
31799;DHT22;18374;51.136;3.502;2023-04-03T16:44:31;10.40;76.10
31799;DHT22;18374;51.136;3.502;2023-04-03T16:46:59;10.40;73.90
31799;DHT22;18374;51.136;3.502;2023-04-03T16:49:26;10.40;75.70
31799;DHT22;18374;51.136;3.502;2023-04-03T16:52:03;10.30;73.60
31799;DHT22;18374;51.136;3.502;2023-04-03T16:54:32;10.20;75.10
31799;DHT22;18374;51.136;3.502;2023-04-03T16:57:00;10.20;73.60
31799;DHT22;18374;51.136;3.502;2023-04-03T16:59:28;10.10;76.00
31799;DHT22;18374;51.136;3.502;2023-04-03T17:01:55;10.20;73.30
31799;DHT22;18374;51.136;3.502;2023-04-03T17:04:23;10.00;75.00
31799;DHT22;18374;51.136;3.502;2023-04-03T17:06:52;9.90;73.80
31799;DHT22;18374;51.136;3.502;2023-04-03T17:09:20;9.90;74.40
31799;DHT22;18374;51.136;3.502;2023-04-03T17:11:48;9.70;74.80
31799;DHT22;18374;51.136;3.502;2023-04-03T17:14:16;9.50;76.20
31799;DHT22;18374;51.136;3.502;2023-04-03T17:16:43;9.40;76.30
31799;DHT22;18374;51.136;3.502;2023-04-03T17:19:11;9.30;76.00
31799;DHT22;18374;51.136;3.502;2023-04-03T17:21:39;9.30;80.30
31799;DHT22;18374;51.136;3.502;2023-04-03T17:24:08;9.40;78.90
31799;DHT22;18374;51.136;3.502;2023-04-03T17:26:41;9.30;80.30
31799;DHT22;18374;51.136;3.502;2023-04-03T17:29:08;9.30;77.10
31799;DHT22;18374;51.136;3.502;2023-04-03T17:31:36;9.20;80.00
31799;DHT22;18374;51.136;3.502;2023-04-03T17:34:04;9.20;79.60
31799;DHT22;18374;51.136;3.502;2023-04-03T17:36:33;9.30;80.70
31799;DHT22;18374;51.136;3.502;2023-04-03T17:39:01;9.20;80.00
31799;DHT22;18374;51.136;3.502;2023-04-03T17:41:29;9.10;84.20
31799;DHT22;18374;51.136;3.502;2023-04-03T17:43:58;9.00;82.80
31799;DHT22;18374;51.136;3.502;2023-04-03T17:46:26;9.00;83.50
31799;DHT22;18374;51.136;3.502;2023-04-03T17:48:54;8.80;82.30
31799;DHT22;18374;51.136;3.502;2023-04-03T17:51:22;8.80;85.00
31799;DHT22;18374;51.136;3.502;2023-04-03T17:56:24;8.80;85.00
31799;DHT22;18374;51.136;3.502;2023-04-03T17:58:55;8.70;86.50
31799;DHT22;18374;51.136;3.502;2023-04-03T18:01:30;8.60;89.20
31799;DHT22;18374;51.136;3.502;2023-04-03T18:04:02;8.70;87.50
31799;DHT22;18374;51.136;3.502;2023-04-03T18:06:53;8.60;86.70
31799;DHT22;18374;51.136;3.502;2023-04-03T18:09:26;8.40;87.00
31799;DHT22;18374;51.136;3.502;2023-04-03T18:11:56;8.30;88.70
31799;DHT22;18374;51.136;3.502;2023-04-03T18:14:26;8.20;88.00
31799;DHT22;18374;51.136;3.502;2023-04-03T18:16:55;8.00;90.10
31799;DHT22;18374;51.136;3.502;2023-04-03T18:19:24;7.90;90.30
31799;DHT22;18374;51.136;3.502;2023-04-03T18:21:58;7.80;91.10
31799;DHT22;18374;51.136;3.502;2023-04-03T18:24:31;7.70;90.40
31799;DHT22;18374;51.136;3.502;2023-04-03T18:27:09;7.60;90.20
31799;DHT22;18374;51.136;3.502;2023-04-03T18:29:39;7.60;90.70
31799;DHT22;18374;51.136;3.502;2023-04-03T18:32:10;7.50;90.90